Time;durP1;ratioP1;P1;durP2;ratioP2;P2;SDS_P1;SDS_P2;PMS_P1;PMS_P2;Temp;Humidity;BMP_temperature;BMP_pressure;BME280_temperature;BME280_humidity;BME280_pressure;Samples;Min_cycle;Max_cycle;Signal;HPM_P1;HPM_P2
2023/12/08 00:00:53;;;;;;;22.50;10.60;;;2.30;99.90;;;;;;4948846;29;20023;-77
2023/12/08 00:03:19;;;;;;;23.70;11.82;;;2.20;99.90;;;;;;4948614;29;20023;-76
2023/12/08 00:05:44;;;;;;;24.25;11.15;;;2.20;99.90;;;;;;4947331;29;20063;-76
2023/12/08 00:08:10;;;;;;;26.08;12.55;;;2.20;99.90;;;;;;4948681;29;20090;-76
2023/12/08 00:10:36;;;;;;;23.60;10.60;;;2.10;99.90;;;;;;4948572;29;20015;-76
2023/12/08 00:13:01;;;;;;;27.55;13.10;;;2.10;99.90;;;;;;4948869;29;20027;-76
2023/12/08 00:15:27;;;;;;;23.30;11.10;;;2.10;99.90;;;;;;4947983;29;20027;-77
2023/12/08 00:17:53;;;;;;;26.77;12.88;;;2.10;99.90;;;;;;4949378;29;20027;-76
2023/12/08 00:20:18;;;;;;;22.60;11.18;;;2.10;99.90;;;;;;4949349;29;20020;-77
2023/12/08 00:22:44;;;;;;;23.70;11.75;;;2.10;99.90;;;;;;4948247;29;20020;-76
2023/12/08 00:25:11;;;;;;;26.98;12.52;;;2.10;99.90;;;;;;4949318;29;20019;-76
2023/12/08 00:27:36;;;;;;;22.75;11.05;;;2.00;99.90;;;;;;4946756;29;20295;-76
2023/12/08 00:30:02;;;;;;;26.15;12.57;;;1.90;99.90;;;;;;4947917;29;20023;-76
2023/12/08 00:32:28;;;;;;;25.20;11.43;;;1.90;99.90;;;;;;4948415;29;20012;-76
2023/12/08 00:34:54;;;;;;;23.70;11.95;;;1.90;99.90;;;;;;4948310;29;20412;-76
2023/12/08 00:37:20;;;;;;;24.10;11.68;;;2.00;99.90;;;;;;4948479;29;20067;-76
2023/12/08 00:39:46;;;;;;;22.77;11.68;;;2.10;99.90;;;;;;4946883;29;20047;-76
2023/12/08 00:42:12;;;;;;;22.13;10.60;;;1.90;99.90;;;;;;4947835;29;20027;-76
2023/12/08 00:44:38;;;;;;;23.08;11.18;;;1.90;99.90;;;;;;4944606;29;20031;-75
2023/12/08 00:47:04;;;;;;;21.60;11.65;;;1.90;99.90;;;;;;4926119;29;20268;-76
2023/12/08 00:49:30;;;;;;;23.55;11.90;;;2.20;99.90;;;;;;4946417;29;20034;-76
2023/12/08 00:51:56;;;;;;;22.92;11.32;;;1.90;99.90;;;;;;4947808;29;20020;-77
2023/12/08 00:54:22;;;;;;;21.08;10.32;;;1.90;99.90;;;;;;4947440;29;20040;-76
2023/12/08 00:56:47;;;;;;;25.08;12.20;;;1.90;99.90;;;;;;4946442;29;20071;-76
2023/12/08 00:59:14;;;;;;;22.52;11.93;;;1.90;99.90;;;;;;4946344;29;20111;-76
2023/12/08 01:01:40;;;;;;;20.25;10.38;;;1.90;99.90;;;;;;4947507;29;20204;-76
2023/12/08 01:04:07;;;;;;;26.90;12.18;;;1.90;99.90;;;;;;4946218;29;20322;-75
2023/12/08 01:06:32;;;;;;;26.50;13.07;;;1.90;99.90;;;;;;4947264;29;20371;-75
2023/12/08 01:08:58;;;;;;;22.05;12.05;;;1.90;99.90;;;;;;4948744;29;20023;-76
2023/12/08 01:11:23;;;;;;;26.33;12.38;;;2.00;99.90;;;;;;4949612;29;20200;-76
2023/12/08 01:13:49;;;;;;;27.77;12.32;;;2.00;99.90;;;;;;4948863;29;20060;-76
2023/12/08 01:16:15;;;;;;;25.70;12.80;;;2.00;99.90;;;;;;4947882;29;20015;-77
2023/12/08 01:18:40;;;;;;;23.92;12.10;;;2.00;99.90;;;;;;4948940;29;20046;-77
2023/12/08 01:21:06;;;;;;;26.90;12.07;;;2.00;99.90;;;;;;4947764;29;20059;-76
2023/12/08 01:23:32;;;;;;;26.00;13.00;;;2.00;99.90;;;;;;4946494;29;20030;-77
2023/12/08 01:25:57;;;;;;;26.85;12.73;;;2.10;99.90;;;;;;4948210;29;20015;-76
2023/12/08 01:28:23;;;;;;;26.83;12.60;;;2.10;99.90;;;;;;4947610;29;20051;-77
2023/12/08 01:30:49;;;;;;;26.17;11.85;;;2.00;99.90;;;;;;4948708;29;20020;-76
2023/12/08 01:33:16;;;;;;;26.17;13.63;;;2.00;99.90;;;;;;4948280;29;20047;-76
2023/12/08 01:35:41;;;;;;;23.85;12.05;;;2.00;99.90;;;;;;4947588;29;20192;-76
2023/12/08 01:38:08;;;;;;;26.67;11.80;;;2.00;99.90;;;;;;4948891;29;20058;-76
2023/12/08 01:40:34;;;;;;;24.05;11.73;;;2.00;99.90;;;;;;4947572;29;20020;-76
2023/12/08 01:42:59;;;;;;;26.77;13.27;;;2.00;99.90;;;;;;4947739;29;20338;-76
2023/12/08 01:45:25;;;;;;;25.58;12.40;;;2.00;99.90;;;;;;4948861;29;20151;-77
2023/12/08 01:47:52;;;;;;;22.40;11.73;;;2.00;99.90;;;;;;4948426;29;20027;-75
2023/12/08 01:50:18;;;;;;;23.63;12.13;;;2.10;99.90;;;;;;4947453;29;20027;-76
2023/12/08 01:52:44;;;;;;;24.83;12.23;;;2.10;99.90;;;;;;4947303;29;20043;-77
2023/12/08 01:55:14;;;;;;;29.73;13.77;;;2.10;99.90;;;;;;4947506;29;20320;-77
2023/12/08 01:57:40;;;;;;;;;;;2.00;99.90;;;;;;4950605;29;20020;-77
2023/12/08 02:00:07;;;;;;;24.05;11.43;;;2.10;99.90;;;;;;4967044;29;19929;-76
2023/12/08 02:02:34;;;;;;;22.08;10.93;;;2.00;99.90;;;;;;4951999;29;20024;-77
2023/12/08 02:05:02;;;;;;;20.83;10.88;;;2.00;99.90;;;;;;4951512;29;20055;-77
2023/12/08 02:07:28;;;;;;;23.02;11.90;;;1.80;99.90;;;;;;4951992;29;20185;-76
2023/12/08 02:09:53;;;;;;;23.98;11.98;;;1.80;99.90;;;;;;4952032;29;20027;-77
2023/12/08 02:12:19;;;;;;;22.60;11.73;;;1.80;99.90;;;;;;4951798;29;20019;-77
2023/12/08 02:14:50;;;;;;;23.45;11.35;;;1.90;99.90;;;;;;4952054;29;20095;-77
2023/12/08 02:17:28;;;;;;;23.92;11.40;;;2.10;99.90;;;;;;4952539;29;20039;-78
2023/12/08 02:19:55;;;;;;;26.15;12.20;;;2.00;99.90;;;;;;4951050;29;20074;-76
2023/12/08 02:22:25;;;;;;;25.80;12.13;;;2.10;99.90;;;;;;4952379;29;20019;-77
2023/12/08 02:24:51;;;;;;;24.63;11.77;;;1.90;99.90;;;;;;4951178;29;20023;-76
2023/12/08 02:27:17;;;;;;;24.65;11.95;;;2.00;99.90;;;;;;4953834;29;20211;-76
2023/12/08 02:29:43;;;;;;;24.63;12.35;;;2.10;99.90;;;;;;4952787;29;20023;-76
2023/12/08 02:32:11;;;;;;;20.90;10.98;;;2.00;99.90;;;;;;4953821;29;20244;-75
2023/12/08 02:34:47;;;;;;;24.27;11.20;;;2.00;99.90;;;;;;4959077;29;20015;-80
2023/12/08 02:37:21;;;;;;;22.73;11.90;;;2.10;99.90;;;;;;4958727;29;20267;-80
2023/12/08 02:39:48;;;;;;;25.80;12.40;;;2.00;99.90;;;;;;4952327;29;20036;-77
2023/12/08 02:42:14;;;;;;;19.90;10.40;;;2.00;99.90;;;;;;4949249;29;20019;-77
2023/12/08 02:44:40;;;;;;;27.30;12.02;;;2.10;99.90;;;;;;4950219;29;20019;-77
2023/12/08 02:47:06;;;;;;;25.52;11.65;;;2.00;99.90;;;;;;4950369;29;20091;-77
2023/12/08 02:49:34;;;;;;;19.23;10.00;;;2.10;99.90;;;;;;4949371;29;20066;-77
2023/12/08 02:51:59;;;;;;;26.13;11.63;;;2.00;99.90;;;;;;4949253;29;20253;-78
2023/12/08 02:54:25;;;;;;;24.42;12.85;;;2.00;99.90;;;;;;4950058;29;20058;-77
2023/12/08 02:56:51;;;;;;;26.58;13.13;;;2.00;99.90;;;;;;4950106;29;20090;-77
2023/12/08 02:59:16;;;;;;;25.08;12.32;;;2.00;99.90;;;;;;4949707;29;20050;-77
2023/12/08 03:01:42;;;;;;;23.88;11.93;;;2.10;99.90;;;;;;4949815;29;20212;-77
2023/12/08 03:04:07;;;;;;;28.17;12.50;;;2.00;99.90;;;;;;4949844;29;20028;-77
2023/12/08 03:06:33;;;;;;;32.42;14.35;;;2.00;99.90;;;;;;4948326;29;20019;-77
2023/12/08 03:08:59;;;;;;;26.40;13.18;;;2.00;99.90;;;;;;4949809;29;20024;-77
2023/12/08 03:11:24;;;;;;;25.02;12.95;;;2.40;99.90;;;;;;4949928;29;20297;-77
2023/12/08 03:13:50;;;;;;;29.10;12.52;;;2.30;99.90;;;;;;4949658;29;20327;-76
2023/12/08 03:16:16;;;;;;;29.65;12.82;;;2.10;99.90;;;;;;4949549;29;20012;-77
2023/12/08 03:18:41;;;;;;;26.63;11.82;;;2.20;99.90;;;;;;4948330;29;20066;-76
2023/12/08 03:21:07;;;;;;;26.33;12.90;;;2.10;99.90;;;;;;4949661;29;20124;-75
2023/12/08 03:23:34;;;;;;;26.02;12.63;;;2.10;99.90;;;;;;4949309;29;20021;-76
2023/12/08 03:26:00;;;;;;;26.92;12.05;;;2.10;99.90;;;;;;4949799;29;20043;-77
2023/12/08 03:28:25;;;;;;;30.50;12.70;;;2.10;99.90;;;;;;4950705;29;20090;-76
2023/12/08 03:30:51;;;;;;;27.88;13.00;;;2.10;99.90;;;;;;4950827;29;20043;-76
2023/12/08 03:33:17;;;;;;;27.33;13.43;;;2.10;99.90;;;;;;4950870;29;20036;-76
2023/12/08 03:35:42;;;;;;;29.98;15.18;;;2.20;99.90;;;;;;4951751;29;20044;-77
2023/12/08 03:38:09;;;;;;;29.77;12.63;;;2.10;99.90;;;;;;4950815;29;20024;-78
2023/12/08 03:40:35;;;;;;;27.33;13.20;;;2.00;99.90;;;;;;4952249;29;20015;-78
2023/12/08 03:43:00;;;;;;;27.27;12.38;;;2.00;99.90;;;;;;4951513;29;20023;-78
2023/12/08 03:45:26;;;;;;;32.92;14.43;;;2.30;99.90;;;;;;4949899;29;20315;-78
2023/12/08 03:47:52;;;;;;;31.10;14.05;;;2.00;99.90;;;;;;4950861;29;20022;-78
2023/12/08 03:50:17;;;;;;;29.00;14.38;;;1.90;99.90;;;;;;4948883;29;20220;-78
2023/12/08 03:52:43;;;;;;;28.15;14.55;;;2.00;99.90;;;;;;4949679;29;20019;-78
2023/12/08 03:55:08;;;;;;;30.33;13.80;;;2.00;99.90;;;;;;4948312;29;20028;-78
2023/12/08 03:57:34;;;;;;;29.15;13.43;;;1.90;99.90;;;;;;4949130;29;20021;-79
2023/12/08 04:00:00;;;;;;;30.42;14.02;;;2.10;99.90;;;;;;4949285;29;20245;-78
2023/12/08 04:02:25;;;;;;;26.58;13.10;;;2.10;99.90;;;;;;4947130;29;20024;-79
2023/12/08 04:04:51;;;;;;;25.17;12.63;;;2.00;99.90;;;;;;4948134;29;20041;-78
2023/12/08 04:07:17;;;;;;;24.10;14.10;;;1.90;99.90;;;;;;4948951;29;20020;-79
2023/12/08 04:09:43;;;;;;;25.98;12.02;;;2.00;99.90;;;;;;4948136;29;20059;-78
2023/12/08 04:12:08;;;;;;;24.65;12.68;;;1.90;99.90;;;;;;4948001;29;20019;-78
2023/12/08 04:14:34;;;;;;;25.67;12.52;;;1.90;99.90;;;;;;4947909;29;20050;-78
2023/12/08 04:17:00;;;;;;;26.13;11.48;;;1.90;99.90;;;;;;4949259;29;20395;-78
2023/12/08 04:19:25;;;;;;;25.60;12.80;;;1.90;99.90;;;;;;4947780;29;20055;-78
2023/12/08 04:21:51;;;;;;;25.05;11.70;;;2.00;99.90;;;;;;4948297;29;20071;-78
2023/12/08 04:24:17;;;;;;;23.00;11.43;;;2.10;99.90;;;;;;4949426;29;20016;-78
2023/12/08 04:26:44;;;;;;;27.05;13.43;;;2.50;99.90;;;;;;4947935;29;20063;-78
2023/12/08 04:29:09;;;;;;;22.40;11.00;;;2.10;99.90;;;;;;4948811;29;20091;-78
2023/12/08 04:31:35;;;;;;;24.40;12.57;;;1.90;99.90;;;;;;4947330;29;20020;-78
2023/12/08 04:34:00;;;;;;;24.15;12.80;;;1.80;99.90;;;;;;4948585;29;20039;-79
2023/12/08 04:36:26;;;;;;;28.98;13.73;;;1.80;99.90;;;;;;4947033;29;20062;-79
2023/12/08 04:38:52;;;;;;;24.45;12.55;;;1.90;99.90;;;;;;4947069;29;20115;-79
2023/12/08 04:41:17;;;;;;;26.83;11.82;;;1.80;99.90;;;;;;4948422;29;20016;-79
2023/12/08 04:43:46;;;;;;;26.98;13.60;;;1.80;99.90;;;;;;4946973;29;20047;-78
2023/12/08 04:46:11;;;;;;;25.00;12.10;;;1.90;99.90;;;;;;4946692;29;20019;-78
2023/12/08 04:48:37;;;;;;;28.45;12.82;;;2.00;99.90;;;;;;4947639;29;20316;-78
2023/12/08 04:51:04;;;;;;;22.15;12.15;;;2.00;99.90;;;;;;4947615;29;20054;-78
2023/12/08 04:53:29;;;;;;;27.33;13.77;;;2.00;99.90;;;;;;4947409;29;20375;-78
2023/12/08 04:55:55;;;;;;;28.48;14.57;;;2.00;99.90;;;;;;4946539;29;20094;-78
2023/12/08 04:58:21;;;;;;;26.90;13.88;;;2.00;99.90;;;;;;4946426;29;20086;-78
2023/12/08 05:00:48;;;;;;;31.67;14.73;;;1.90;99.90;;;;;;4947954;29;20028;-78
2023/12/08 05:03:14;;;;;;;29.63;13.98;;;1.90;99.90;;;;;;4946504;29;20086;-79
2023/12/08 05:05:40;;;;;;;32.25;15.27;;;1.80;99.90;;;;;;4946166;29;20316;-78
2023/12/08 05:08:05;;;;;;;27.83;13.63;;;1.80;99.90;;;;;;4947323;29;20027;-78
2023/12/08 05:10:31;;;;;;;26.75;14.02;;;1.70;99.90;;;;;;4947443;29;20019;-78
2023/12/08 05:12:57;;;;;;;30.63;13.85;;;1.70;99.90;;;;;;4946065;29;20023;-79
2023/12/08 05:15:24;;;;;;;31.60;14.75;;;1.70;99.90;;;;;;4947048;29;20256;-78
2023/12/08 05:17:50;;;;;;;25.85;14.02;;;1.80;99.90;;;;;;4947224;29;20027;-78
2023/12/08 05:20:16;;;;;;;30.70;14.80;;;1.90;99.90;;;;;;4946184;29;20027;-78
2023/12/08 05:22:42;;;;;;;30.65;14.80;;;1.90;99.90;;;;;;4946075;29;20501;-79
2023/12/08 05:25:10;;;;;;;27.58;14.05;;;2.20;99.90;;;;;;4947058;29;20011;-78
2023/12/08 05:27:37;;;;;;;32.92;14.07;;;2.00;99.90;;;;;;4947129;29;20323;-78
2023/12/08 05:30:02;;;;;;;27.75;14.68;;;2.20;99.90;;;;;;4947069;29;20031;-78
2023/12/08 05:32:28;;;;;;;30.42;12.98;;;2.20;99.90;;;;;;4946879;29;20031;-78
2023/12/08 05:34:54;;;;;;;31.00;13.93;;;2.20;99.90;;;;;;4945941;29;20040;-78
2023/12/08 05:37:19;;;;;;;28.98;13.65;;;2.10;99.90;;;;;;4939214;29;20027;-78
2023/12/08 05:39:45;;;;;;;33.05;13.85;;;2.10;99.90;;;;;;4944275;29;20064;-79
2023/12/08 05:42:11;;;;;;;26.88;14.63;;;2.20;99.90;;;;;;4940858;29;20027;-79
2023/12/08 05:44:36;;;;;;;26.63;14.32;;;2.20;99.90;;;;;;4941808;29;20421;-79
2023/12/08 05:47:02;;;;;;;26.83;14.23;;;2.10;99.90;;;;;;4941454;29;20024;-79
2023/12/08 05:49:28;;;;;;;29.83;13.90;;;2.10;99.90;;;;;;4940977;29;20066;-79
2023/12/08 05:51:53;;;;;;;27.50;14.27;;;2.40;99.90;;;;;;4943224;29;20586;-78
2023/12/08 05:54:19;;;;;;;24.35;13.38;;;2.20;99.90;;;;;;4942187;29;20043;-78
2023/12/08 05:56:45;;;;;;;24.55;13.02;;;2.20;99.90;;;;;;4943461;29;20323;-78
2023/12/08 05:59:10;;;;;;;27.50;13.57;;;2.20;99.90;;;;;;4942087;29;20063;-78
2023/12/08 06:01:36;;;;;;;26.42;13.00;;;2.20;99.90;;;;;;4944750;29;20034;-78
2023/12/08 06:04:01;;;;;;;32.05;15.13;;;2.30;99.90;;;;;;4945341;29;20217;-78
2023/12/08 06:06:31;;;;;;;30.52;14.65;;;2.30;99.90;;;;;;4942757;29;20024;-78
2023/12/08 06:08:57;;;;;;;34.85;14.63;;;2.30;99.90;;;;;;4945398;29;20046;-78
2023/12/08 06:11:23;;;;;;;27.88;14.25;;;2.60;99.90;;;;;;4944336;29;20315;-78
2023/12/08 06:13:48;;;;;;;31.77;14.98;;;2.30;99.90;;;;;;4944008;29;20324;-78
2023/12/08 06:16:14;;;;;;;72.53;28.98;;;2.20;99.90;;;;;;4943102;29;20028;-78
2023/12/08 06:18:40;;;;;;;44.67;20.58;;;2.30;99.90;;;;;;4943128;29;20099;-80
2023/12/08 06:21:06;;;;;;;32.80;17.30;;;2.30;99.90;;;;;;4939112;29;20103;-79
2023/12/08 06:23:31;;;;;;;30.38;15.32;;;2.20;99.90;;;;;;4943157;29;20339;-79
2023/12/08 06:25:57;;;;;;;29.00;15.65;;;2.20;99.90;;;;;;4940159;29;20102;-79
2023/12/08 06:28:23;;;;;;;29.10;12.68;;;2.20;99.90;;;;;;4939527;29;20038;-80
2023/12/08 06:30:48;;;;;;;28.95;13.88;;;2.20;99.90;;;;;;4938136;29;20038;-79
2023/12/08 06:33:14;;;;;;;35.42;16.65;;;2.10;99.90;;;;;;4941746;29;20028;-79
2023/12/08 06:35:40;;;;;;;30.58;14.40;;;2.00;99.90;;;;;;4945648;29;20027;-80
2023/12/08 06:38:05;;;;;;;35.33;16.73;;;2.20;99.90;;;;;;4946981;29;20024;-79
2023/12/08 06:40:31;;;;;;;35.30;15.82;;;2.20;99.90;;;;;;4945872;29;20020;-79
2023/12/08 06:42:56;;;;;;;32.30;15.25;;;2.40;99.90;;;;;;4948013;29;20019;-79
2023/12/08 06:45:22;;;;;;;29.60;15.15;;;2.20;99.90;;;;;;4950195;29;20015;-79
2023/12/08 06:47:48;;;;;;;30.00;15.43;;;2.20;99.90;;;;;;4950138;29;20316;-79
2023/12/08 06:50:14;;;;;;;33.95;15.32;;;2.20;99.90;;;;;;4950355;29;20022;-78
2023/12/08 06:52:40;;;;;;;34.60;15.80;;;2.30;99.90;;;;;;4950244;29;20026;-80
2023/12/08 06:55:06;;;;;;;32.70;15.80;;;2.40;99.90;;;;;;4949950;29;20036;-79
2023/12/08 06:57:32;;;;;;;33.80;18.00;;;2.30;99.90;;;;;;4948943;29;20094;-79
2023/12/08 06:59:57;;;;;;;35.80;18.65;;;2.40;99.90;;;;;;4949653;29;20059;-78
2023/12/08 07:02:23;;;;;;;32.38;14.50;;;2.40;99.90;;;;;;4951092;29;20211;-78
2023/12/08 07:04:49;;;;;;;30.67;14.70;;;2.40;99.90;;;;;;4950910;29;20338;-78
2023/12/08 07:07:15;;;;;;;34.50;16.67;;;2.40;99.90;;;;;;4950483;29;20098;-79
2023/12/08 07:09:41;;;;;;;32.08;16.00;;;2.40;99.90;;;;;;4951280;29;20278;-79
2023/12/08 07:12:07;;;;;;;31.38;15.07;;;2.50;99.90;;;;;;4950268;29;20304;-78
2023/12/08 07:14:33;;;;;;;35.10;16.67;;;2.50;99.90;;;;;;4950365;29;20039;-78
2023/12/08 07:16:59;;;;;;;29.25;14.18;;;2.50;99.90;;;;;;4949770;29;20011;-79
2023/12/08 07:19:24;;;;;;;30.50;15.68;;;2.50;99.90;;;;;;4949830;29;20016;-78
2023/12/08 07:21:50;;;;;;;28.65;14.07;;;2.50;99.90;;;;;;4948437;29;20055;-79
2023/12/08 07:24:16;;;;;;;30.73;16.13;;;2.40;99.90;;;;;;4949751;29;20046;-79
2023/12/08 07:26:42;;;;;;;31.30;14.23;;;2.50;99.90;;;;;;4948882;29;20331;-79
2023/12/08 07:29:08;;;;;;;29.77;14.68;;;2.50;99.90;;;;;;4948771;29;20116;-80
2023/12/08 07:31:33;;;;;;;29.23;13.77;;;2.50;99.90;;;;;;4949142;29;20026;-79
2023/12/08 07:34:00;;;;;;;31.90;15.95;;;2.50;99.90;;;;;;4949187;29;20051;-79
2023/12/08 07:36:25;;;;;;;35.35;16.35;;;2.70;99.90;;;;;;4950500;29;20023;-79
2023/12/08 07:38:51;;;;;;;36.75;15.07;;;2.80;99.90;;;;;;4948935;29;20016;-78
2023/12/08 07:41:17;;;;;;;31.92;15.05;;;2.70;99.90;;;;;;4948806;29;20311;-79
2023/12/08 07:43:42;;;;;;;33.20;15.65;;;2.70;99.90;;;;;;4949800;29;20015;-78
2023/12/08 07:46:08;;;;;;;28.42;14.98;;;2.80;99.90;;;;;;4949564;29;20124;-78
2023/12/08 07:48:34;;;;;;;31.42;14.68;;;3.00;99.90;;;;;;4948764;29;20027;-78
2023/12/08 07:50:59;;;;;;;31.27;15.88;;;2.80;99.90;;;;;;4948865;29;20375;-78
2023/12/08 07:53:25;;;;;;;34.47;16.15;;;3.00;99.90;;;;;;4947421;29;20055;-78
2023/12/08 07:55:51;;;;;;;27.42;13.10;;;3.00;99.90;;;;;;4949926;29;20020;-78
2023/12/08 07:58:17;;;;;;;30.58;14.35;;;2.90;99.90;;;;;;4948852;29;20056;-79
2023/12/08 08:00:43;;;;;;;29.20;15.30;;;2.90;99.90;;;;;;4949010;29;20047;-76
2023/12/08 08:03:09;;;;;;;34.35;14.85;;;3.10;99.90;;;;;;4949046;29;20323;-74
2023/12/08 08:05:34;;;;;;;30.75;14.40;;;3.10;99.90;;;;;;4950032;29;20019;-75
2023/12/08 08:08:02;;;;;;;26.42;14.70;;;3.10;99.90;;;;;;4948701;29;20237;-75
2023/12/08 08:10:28;;;;;;;26.50;13.63;;;3.10;99.90;;;;;;4947994;29;20028;-78
2023/12/08 08:12:53;;;;;;;31.80;15.18;;;3.10;99.90;;;;;;4947954;29;20047;-78
2023/12/08 08:15:19;;;;;;;30.77;14.20;;;3.50;99.90;;;;;;4945959;29;20031;-75
2023/12/08 08:17:44;;;;;;;31.33;15.10;;;3.00;99.90;;;;;;4946682;29;20023;-75
2023/12/08 08:20:11;;;;;;;32.92;15.68;;;3.10;99.90;;;;;;4945268;29;20336;-75
2023/12/08 08:22:37;;;;;;;32.35;16.02;;;3.20;99.90;;;;;;4946880;29;20075;-75
2023/12/08 08:25:03;;;;;;;30.13;15.13;;;3.10;99.90;;;;;;4947582;29;20024;-75
2023/12/08 08:27:28;;;;;;;33.75;15.07;;;3.20;99.90;;;;;;4947436;29;20043;-77
2023/12/08 08:29:54;;;;;;;31.35;16.20;;;3.20;99.90;;;;;;4947846;29;20023;-75
2023/12/08 08:32:21;;;;;;;29.52;15.77;;;3.30;99.90;;;;;;4947820;29;20035;-76
2023/12/08 08:34:46;;;;;;;30.02;14.40;;;3.30;99.90;;;;;;4945516;29;20038;-76
2023/12/08 08:37:12;;;;;;;30.05;15.57;;;3.40;99.90;;;;;;4947100;29;20316;-76
2023/12/08 08:39:38;;;;;;;30.33;15.32;;;3.50;99.90;;;;;;4947112;29;20347;-73
2023/12/08 08:42:03;;;;;;;33.47;14.95;;;3.50;99.90;;;;;;4945850;29;20035;-73
2023/12/08 08:44:29;;;;;;;27.20;15.13;;;3.60;99.90;;;;;;4945397;29;20316;-73
2023/12/08 08:46:55;;;;;;;29.42;13.95;;;3.70;99.90;;;;;;4947002;29;20047;-72
2023/12/08 08:49:22;;;;;;;29.63;13.00;;;3.80;99.90;;;;;;4947126;29;20026;-74
2023/12/08 08:51:48;;;;;;;29.08;14.45;;;3.80;99.90;;;;;;4946418;29;20070;-72
2023/12/08 08:54:13;;;;;;;30.65;16.65;;;3.80;99.90;;;;;;4946213;29;20063;-74
2023/12/08 08:56:39;;;;;;;31.25;15.85;;;3.90;99.90;;;;;;4947261;29;20208;-73
2023/12/08 08:59:04;;;;;;;30.67;15.30;;;4.00;99.90;;;;;;4946091;29;20063;-73
2023/12/08 09:01:30;;;;;;;26.75;13.98;;;4.10;99.90;;;;;;4940477;29;20038;-74
2023/12/08 09:03:56;;;;;;;28.52;14.90;;;4.10;99.90;;;;;;4942718;29;20083;-73
2023/12/08 09:06:21;;;;;;;28.48;14.32;;;4.10;99.90;;;;;;4941244;29;20024;-75
2023/12/08 09:08:47;;;;;;;31.25;14.95;;;4.10;99.90;;;;;;4941414;29;20481;-73
2023/12/08 09:11:13;;;;;;;33.40;17.00;;;4.00;99.90;;;;;;4943094;29;20275;-73
2023/12/08 09:13:38;;;;;;;32.13;15.90;;;4.00;99.90;;;;;;4947132;29;20316;-73
2023/12/08 09:16:04;;;;;;;38.17;16.77;;;4.00;99.90;;;;;;4947033;29;20032;-74
2023/12/08 09:18:30;;;;;;;42.20;20.83;;;4.00;99.90;;;;;;4947164;29;20302;-73
2023/12/08 09:20:56;;;;;;;47.42;22.35;;;4.00;99.90;;;;;;4946374;29;20083;-72
2023/12/08 09:23:22;;;;;;;39.55;19.13;;;3.90;99.90;;;;;;4946903;29;20327;-74
2023/12/08 09:25:47;;;;;;;38.10;16.95;;;4.00;99.90;;;;;;4946628;29;20090;-73
2023/12/08 09:28:13;;;;;;;37.25;17.63;;;4.00;99.90;;;;;;4947214;29;20020;-77
2023/12/08 09:30:39;;;;;;;37.72;17.10;;;4.20;99.90;;;;;;4946860;29;20193;-73
2023/12/08 09:33:04;;;;;;;35.22;18.92;;;4.20;99.90;;;;;;4946618;29;20102;-73
2023/12/08 09:35:30;;;;;;;29.52;15.23;;;4.50;99.90;;;;;;4946172;29;20027;-73
2023/12/08 09:37:56;;;;;;;35.38;17.40;;;4.40;99.90;;;;;;4946801;29;20245;-73
2023/12/08 09:40:23;;;;;;;32.38;16.48;;;4.60;99.90;;;;;;4946647;29;20031;-73
2023/12/08 09:42:55;;;;;;;33.67;16.02;;;4.50;99.90;;;;;;4947158;29;20060;-73
2023/12/08 09:45:21;;;;;;;29.50;15.10;;;4.70;99.90;;;;;;4946770;29;20067;-74
2023/12/08 09:47:49;;;;;;;35.03;15.50;;;4.60;99.90;;;;;;4946788;29;20015;-74
2023/12/08 09:50:16;;;;;;;30.73;15.40;;;4.70;99.90;;;;;;4946702;29;20038;-74
2023/12/08 09:52:44;;;;;;;35.53;17.20;;;4.80;99.90;;;;;;4945106;29;20051;-74
2023/12/08 09:55:10;;;;;;;31.80;16.63;;;5.00;99.90;;;;;;4945946;29;20062;-73
2023/12/08 09:57:37;;;;;;;28.67;14.88;;;5.10;99.90;;;;;;4946435;29;20020;-74
2023/12/08 10:00:13;;;;;;;27.90;14.13;;;5.20;99.90;;;;;;4945704;29;20048;-73
2023/12/08 10:02:40;;;;;;;23.52;12.27;;;5.40;99.90;;;;;;4945900;29;20063;-73
2023/12/08 10:05:07;;;;;;;25.90;12.60;;;5.50;99.90;;;;;;4945877;29;20026;-73
2023/12/08 10:07:34;;;;;;;28.38;13.30;;;5.70;99.90;;;;;;4945888;29;20012;-74
2023/12/08 10:10:00;;;;;;;23.90;14.10;;;5.60;99.90;;;;;;4945837;29;20078;-75
2023/12/08 10:12:26;;;;;;;32.42;16.52;;;5.40;99.90;;;;;;4945827;29;20364;-74
2023/12/08 10:14:55;;;;;;;30.58;15.18;;;5.30;99.90;;;;;;4945803;29;20292;-72
2023/12/08 10:17:21;;;;;;;27.33;13.97;;;5.20;99.90;;;;;;4945626;29;20016;-75
2023/12/08 10:19:46;;;;;;;33.67;15.27;;;5.20;99.90;;;;;;4947778;29;20098;-74
2023/12/08 10:22:12;;;;;;;28.02;15.13;;;5.00;99.90;;;;;;4949177;29;20222;-76
2023/12/08 10:24:40;;;;;;;35.67;16.88;;;5.10;99.90;;;;;;4949494;29;20095;-76
2023/12/08 10:27:11;;;;;;;35.17;15.13;;;5.10;99.90;;;;;;4949320;29;20022;-73
2023/12/08 10:29:38;;;;;;;35.90;15.43;;;5.20;99.90;;;;;;4949174;29;20023;-75
2023/12/08 10:32:04;;;;;;;26.70;15.00;;;5.30;99.90;;;;;;4949393;29;20015;-74
2023/12/08 10:34:31;;;;;;;27.73;13.15;;;5.30;99.90;;;;;;4948760;29;20050;-74
2023/12/08 10:36:57;;;;;;;30.30;15.23;;;5.40;99.90;;;;;;4947933;29;20020;-74
2023/12/08 10:39:24;;;;;;;28.17;12.85;;;5.60;99.90;;;;;;4948304;29;20067;-73
2023/12/08 10:41:51;;;;;;;29.58;12.43;;;5.60;99.90;;;;;;4949191;29;20016;-73
2023/12/08 10:44:23;;;;;;;30.23;12.80;;;5.70;99.90;;;;;;4948951;29;20020;-75
2023/12/08 10:46:49;;;;;;;20.35;11.70;;;5.80;99.90;;;;;;4947425;29;20359;-73
2023/12/08 10:49:19;;;;;;;48.53;18.48;;;5.90;99.90;;;;;;4948801;29;20023;-73
2023/12/08 10:51:49;;;;;;;31.17;13.63;;;6.00;99.90;;;;;;4948648;29;20031;-72
2023/12/08 10:54:16;;;;;;;31.30;13.43;;;6.00;99.90;;;;;;4947379;29;20039;-72
2023/12/08 10:56:48;;;;;;;26.17;14.25;;;5.90;99.90;;;;;;4948435;29;20079;-73
2023/12/08 10:59:18;;;;;;;26.83;12.65;;;5.80;99.90;;;;;;4908664;29;1183013;-72
2023/12/08 11:01:46;;;;;;;38.20;19.48;;;5.80;99.90;;;;;;4949509;29;20131;-72
2023/12/08 11:04:14;;;;;;;40.28;18.00;;;5.70;99.90;;;;;;4949521;29;20022;-73
2023/12/08 11:06:47;;;;;;;37.08;17.42;;;5.80;99.90;;;;;;4949410;29;20253;-74
2023/12/08 11:09:15;;;;;;;38.95;18.63;;;5.70;99.90;;;;;;4948352;29;20020;-73
2023/12/08 11:11:48;;;;;;;33.35;16.83;;;5.80;99.90;;;;;;4949336;29;20082;-73
2023/12/08 11:14:28;;;;;;;30.98;16.00;;;5.90;99.90;;;;;;4949291;29;20027;-72
2023/12/08 11:16:57;;;;;;;20.10;11.13;;;5.90;99.90;;;;;;4949316;29;20019;-74
2023/12/08 11:19:25;;;;;;;26.27;11.82;;;6.00;99.90;;;;;;4949674;29;20062;-76
2023/12/08 11:21:52;;;;;;;20.55;11.80;;;6.10;99.90;;;;;;4948067;29;20320;-74
2023/12/08 11:24:19;;;;;;;20.15;9.75;;;6.10;99.90;;;;;;4947986;29;20024;-73
2023/12/08 11:27:02;;;;;;;16.15;9.52;;;6.10;99.90;;;;;;4947808;29;20020;-73
2023/12/08 11:30:02;;;;;;;17.50;10.20;;;6.30;99.90;;;;;;4948891;29;20020;-74
2023/12/08 11:32:47;;;;;;;18.50;9.95;;;6.30;99.90;;;;;;4949070;29;20019;-73
2023/12/08 11:35:17;;;;;;;14.80;8.73;;;6.30;99.90;;;;;;4948205;29;20031;-74
2023/12/08 11:37:45;;;;;;;18.70;8.48;;;6.40;99.90;;;;;;4949444;29;20026;-74
2023/12/08 11:40:11;;;;;;;16.85;9.95;;;6.40;99.90;;;;;;4949408;29;20066;-73
2023/12/08 11:42:43;;;;;;;14.88;8.80;;;6.40;99.90;;;;;;4949018;29;20050;-74
2023/12/08 11:45:10;;;;;;;15.48;8.68;;;6.50;99.90;;;;;;4947660;29;20063;-74
2023/12/08 11:47:36;;;;;;;19.67;9.88;;;6.60;99.90;;;;;;4948821;29;20016;-74
2023/12/08 11:50:03;;;;;;;13.02;8.23;;;6.50;99.90;;;;;;4949052;29;20020;-73
2023/12/08 11:52:34;;;;;;;18.83;12.15;;;6.50;99.90;;;;;;4948683;29;20019;-73
2023/12/08 11:55:07;;;;;;;17.60;11.25;;;6.60;99.90;;;;;;4948524;29;20043;-73
2023/12/08 11:57:36;;;;;;;23.00;12.80;;;6.80;99.90;;;;;;4949500;29;20011;-73
2023/12/08 12:00:04;;;;;;;16.73;10.90;;;6.80;99.90;;;;;;4948776;29;20065;-74
2023/12/08 12:02:30;;;;;;;17.63;10.05;;;6.90;99.90;;;;;;4947523;29;20028;-76
2023/12/08 12:04:56;;;;;;;17.80;10.32;;;6.90;99.90;;;;;;4948137;29;20027;-72
2023/12/08 12:07:23;;;;;;;17.88;10.15;;;6.80;99.90;;;;;;4947302;29;20047;-74
2023/12/08 12:09:55;;;;;;;18.58;11.25;;;6.60;99.90;;;;;;4947185;29;20039;-74
2023/12/08 12:12:28;;;;;;;18.88;9.73;;;6.50;99.90;;;;;;4947047;29;20338;-73
2023/12/08 12:14:55;;;;;;;16.40;10.73;;;6.30;99.90;;;;;;4946918;29;20035;-74
2023/12/08 12:17:23;;;;;;;15.95;9.55;;;6.30;99.90;;;;;;4946693;29;20098;-75
2023/12/08 12:19:50;;;;;;;16.27;8.93;;;6.30;99.90;;;;;;4948624;29;20086;-73
2023/12/08 12:22:16;;;;;;;20.63;9.07;;;6.30;99.90;;;;;;4947509;29;20031;-74
2023/12/08 12:24:42;;;;;;;16.73;8.40;;;6.30;99.90;;;;;;4946774;29;20031;-74
2023/12/08 12:27:07;;;;;;;16.15;9.23;;;6.30;99.90;;;;;;4947860;29;20083;-73
2023/12/08 12:29:33;;;;;;;14.15;8.90;;;6.20;99.90;;;;;;4946721;29;20020;-73
2023/12/08 12:32:00;;;;;;;16.38;9.75;;;6.20;99.90;;;;;;4947794;29;20024;-73
2023/12/08 12:34:25;;;;;;;15.55;8.85;;;6.20;99.90;;;;;;4946892;29;20060;-73